SYRK1: Arkansas R at Syracuse, KS

                                SHEF ID:       SYRK1     ARKANSAS R AT SYRACUSE, KS
STATION TYPE:
Regulating: Stage = 10.00, Flow = 2000

PRECIP STAGE RIV-FLOW BAT-LOAD
in ft cfs volt
Ccp-Rev Ccp-Rev Ccp-Rev Ccp-Rev
(America/Chicago)
08/11 00:00 0.00 5.06 193 12.60
08/11 01:00 0.00 5.07 194 12.60
08/11 02:00 0.00 5.00 182 12.54
08/11 03:00 0.00 5.06 193 12.54
08/11 04:00 0.00 5.11 200 12.54
08/11 05:00 0.00 5.07 194 12.48
08/11 06:00 0.00 5.02 186 12.48
08/11 07:00 0.00 5.03 187 12.48
08/11 08:00 0.00 5.02 186 12.48
08/11 09:00 0.00 5.02 186 12.48
08/11 10:00 0.00 5.02 186 12.54
08/11 11:00 0.00 5.01 184 12.60
08/11 12:00 0.00 5.03 187 12.65
08/11 13:00 0.00 4.98 179 13.30
08/11 14:00 0.00 4.98 179 13.53
08/11 15:00 0.00 4.99 181 13.53
08/11 16:00 0.00 5.00 182 13.53
08/11 17:00 0.00 5.04 189 13.53
08/11 18:00 0.00 5.04 189 13.48
08/11 19:00 0.00 5.05 191 13.30
08/11 20:00 0.00 5.04 189 12.89
08/11 21:00 0.00 4.99 181 12.83
08/11 22:00 0.00 4.96 176 12.77
08/11 23:00 ---- ---- ---- ----
Data processed at Mon 12Aug2024 04:28 GMT

Parsing this webpage?

Checkout our new Data API! CWMSDataAPI (CDA)

Timeseries IDs (TSIDs)

TSIDs used from left to right in the data table
SYRA.Precip-Inc.Total.1Hour.1Hour.Ccp-Rev
SYRA.Stage.Inst.1Hour.0.Ccp-Rev
SYRA.Flow.Inst.1Hour.0.Ccp-Rev
SYRA.Volt-Battery Load.Inst.1Hour.0.Ccp-Rev

                            

All information presented herein is the property of the government of the United States of America and may be revised or deleted at any time without prior notice. Dissemination of this information without the expressed written consent of the Public Affairs Office, Tulsa District U.S. Army Corps of Engineers is strictly prohibited. These data are gathered electronically and, as presented, have NOT undergone any form of quality control. These data are NOT guaranteed to be valid or correct.